Time;durP1;ratioP1;P1;durP2;ratioP2;P2;SDS_P1;SDS_P2;PMS_P1;PMS_P2;Temp;Humidity;BMP_temperature;BMP_pressure;BME280_temperature;BME280_humidity;BME280_pressure;Samples;Min_cycle;Max_cycle;Signal;HPM_P1;HPM_P2
2022/01/13 00:00:52;;;;;;;37.30;23.13;;;;;;;3.80;99.40;104086.72;5010783;28;20050;-50
2022/01/13 00:03:20;;;;;;;37.60;22.83;;;;;;;3.74;99.43;104080.06;5010955;28;20524;-53
2022/01/13 00:05:48;;;;;;;37.10;24.83;;;;;;;3.69;100.00;104098.53;5009694;28;20041;-51
2022/01/13 00:08:16;;;;;;;36.75;24.75;;;;;;;3.69;100.00;104103.91;4994615;28;20149;-50
2022/01/13 00:10:43;;;;;;;37.53;23.88;;;;;;;3.70;99.97;104099.38;5010621;28;20143;-51
2022/01/13 00:13:20;;;;;;;36.85;23.75;;;;;;;3.70;100.00;104094.81;5010396;28;20106;-51
2022/01/13 00:16:21;;;;;;;36.78;23.48;;;;;;;3.68;100.00;104096.84;5010440;28;20049;-48
2022/01/13 00:18:48;;;;;;;38.67;25.13;;;;;;;3.65;100.00;104102.47;4997269;28;20049;-56
2022/01/13 00:21:30;;;;;;;38.40;25.00;;;;;;;3.65;100.00;104099.78;5010643;28;20053;-49
2022/01/13 00:24:01;;;;;;;37.92;24.73;;;;;;;3.68;100.00;104104.94;5013614;28;20519;-50
2022/01/13 00:26:31;;;;;;;36.70;23.98;;;;;;;3.68;100.00;104107.63;5033505;28;20048;-47
2022/01/13 00:29:02;;;;;;;37.28;24.80;;;;;;;3.67;100.00;104097.81;5032219;28;20393;-50
2022/01/13 00:31:33;;;;;;;39.50;25.50;;;;;;;3.68;100.00;104107.63;5032428;28;20057;-50
2022/01/13 00:34:03;;;;;;;41.83;25.90;;;;;;;3.68;100.00;104102.22;5032320;28;20112;-49
2022/01/13 00:36:34;;;;;;;42.58;27.13;;;;;;;3.68;100.00;104096.84;5031751;28;20034;-51
2022/01/13 00:39:02;;;;;;;38.88;26.42;;;;;;;3.67;100.00;104084.31;5031934;28;20060;-49
2022/01/13 00:41:30;;;;;;;37.65;25.70;;;;;;;3.67;100.00;104078.94;5032149;28;20465;-51
2022/01/13 00:43:59;;;;;;;31.20;21.95;;;;;;;3.66;99.79;104069.16;5031214;28;20404;-50
2022/01/13 00:46:31;;;;;;;35.88;25.10;;;;;;;3.65;100.00;104070.13;5032126;28;20060;-47
2022/01/13 00:48:59;;;;;;;36.13;24.52;;;;;;;3.64;100.00;104079.22;5032107;28;20092;-50
2022/01/13 00:51:26;;;;;;;41.17;25.60;;;;;;;3.65;100.00;104069.28;5032581;28;20085;-49
2022/01/13 00:53:55;;;;;;;39.20;25.70;;;;;;;3.66;100.00;104071.00;5032291;28;20053;-49
2022/01/13 00:56:22;;;;;;;37.28;25.25;;;;;;;3.65;100.00;104067.44;5032250;28;20045;-49
2022/01/13 00:58:50;;;;;;;34.65;24.10;;;;;;;3.67;100.00;104067.31;5032200;28;20042;-54
2022/01/13 01:01:17;;;;;;;33.72;22.80;;;;;;;3.64;100.00;104065.75;5034608;28;20045;-47
2022/01/13 01:03:45;;;;;;;32.00;22.27;;;;;;;3.64;100.00;104068.44;5036141;28;20459;-49
2022/01/13 01:06:13;;;;;;;31.85;23.55;;;;;;;3.61;100.00;104066.88;5035894;28;20045;-50
2022/01/13 01:08:42;;;;;;;33.03;22.92;;;;;;;3.58;100.00;104069.00;5035553;28;20464;-49
2022/01/13 01:11:10;;;;;;;31.40;21.42;;;;;;;3.59;100.00;104060.78;5035373;28;20121;-54
2022/01/13 01:13:38;;;;;;;33.80;23.45;;;;;;;3.61;100.00;104063.34;5035871;28;20037;-53
2022/01/13 01:16:09;;;;;;;31.02;22.05;;;;;;;3.62;100.00;104059.63;5036201;28;20069;-51
2022/01/13 01:23:58;;;;;;;27.83;19.85;;;;;;;3.62;100.00;104065.88;5035538;28;20057;-52
2022/01/13 01:29:21;;;;;;;;;;;;;;;3.64;100.00;104073.84;5035907;28;20069;-46
2022/01/13 01:31:52;;;;;;;32.20;22.70;;;;;;;3.63;100.00;104073.00;5034951;28;19921;-51
2022/01/13 01:36:52;;;;;;;28.38;20.23;;;;;;;3.61;100.00;104066.88;5035588;28;20042;-52
2022/01/13 01:39:20;;;;;;;24.50;18.83;;;;;;;3.58;100.00;104075.25;5034748;28;20049;-52
2022/01/13 01:41:50;;;;;;;25.35;18.42;;;;;;;3.58;100.00;104074.38;5033388;28;20060;-51
2022/01/13 01:44:38;;;;;;;27.83;19.23;;;;;;;3.57;100.00;104070.84;5033660;28;20049;-50
2022/01/13 01:47:08;;;;;;;27.90;19.60;;;;;;;3.53;100.00;104066.72;5013707;28;20112;-50
2022/01/13 01:49:41;;;;;;;24.80;17.63;;;;;;;3.52;100.00;104069.56;5022657;28;20450;-53
2022/01/13 01:52:13;;;;;;;25.95;19.13;;;;;;;3.52;100.00;104064.19;5034807;28;20041;-51
2022/01/13 01:54:41;;;;;;;21.92;16.05;;;;;;;3.51;100.00;104060.63;5034996;28;20033;-50
2022/01/13 01:57:09;;;;;;;23.58;16.90;;;;;;;3.49;100.00;104059.03;5035008;28;20052;-53
2022/01/13 01:59:40;;;;;;;24.58;17.25;;;;;;;3.45;100.00;104057.66;5034333;28;20033;-49
2022/01/13 02:02:10;;;;;;;24.25;17.40;;;;;;;3.44;100.00;104062.19;5033106;28;20496;-46
2022/01/13 02:04:38;;;;;;;20.75;14.13;;;;;;;3.46;100.00;104070.97;5034555;28;20037;-52
2022/01/13 02:07:07;;;;;;;19.67;14.85;;;;;;;3.48;100.00;104074.38;5034880;28;20052;-48
2022/01/13 02:09:37;;;;;;;24.13;17.67;;;;;;;3.51;100.00;104068.72;5033474;28;20057;-49
2022/01/13 02:12:12;;;;;;;22.20;16.63;;;;;;;3.52;100.00;104064.19;5034306;28;20041;-53
2022/01/13 02:15:05;;;;;;;20.67;15.63;;;;;;;3.51;100.00;104068.72;5033568;28;20447;-50
2022/01/13 02:17:34;;;;;;;19.52;14.75;;;;;;;3.52;100.00;104074.97;5034484;28;20037;-49
2022/01/13 02:20:04;;;;;;;20.60;14.77;;;;;;;3.51;100.00;104070.53;5033435;28;20049;-50
2022/01/13 02:22:31;;;;;;;22.10;14.60;;;;;;;3.51;100.00;104073.25;5033591;28;20045;-49
2022/01/13 02:24:59;;;;;;;22.33;15.60;;;;;;;3.49;100.00;104075.22;5034246;28;20140;-50
2022/01/13 02:27:26;;;;;;;21.10;14.88;;;;;;;3.49;100.00;104072.53;5034298;28;20042;-50
2022/01/13 02:29:54;;;;;;;22.88;15.25;;;;;;;3.50;100.00;104075.09;5034037;28;20079;-51
2022/01/13 02:32:22;;;;;;;20.92;15.30;;;;;;;3.51;100.00;104074.13;5034168;28;20045;-50
2022/01/13 02:34:49;;;;;;;17.88;13.57;;;;;;;3.49;100.00;104069.84;5034189;28;20041;-52
2022/01/13 02:37:17;;;;;;;16.52;11.48;;;;;;;3.48;100.00;104063.59;5034274;28;20045;-54
2022/01/13 02:39:44;;;;;;;19.38;12.88;;;;;;;3.49;100.00;104070.72;5033620;28;20510;-53
2022/01/13 02:42:14;;;;;;;17.55;13.30;;;;;;;3.50;100.00;104071.56;5033601;28;20055;-57
2022/01/13 02:45:01;;;;;;;18.98;14.15;;;;;;;3.51;100.00;104073.25;5034407;28;20068;-51
2022/01/13 02:48:00;;;;;;;18.45;13.32;;;;;;;3.49;100.00;104064.44;5034055;28;20128;-55
2022/01/13 02:50:27;;;;;;;16.75;12.25;;;;;;;3.49;100.00;104070.72;5033819;28;20042;-53
2022/01/13 02:52:55;;;;;;;20.13;13.75;;;;;;;3.49;100.00;104077.91;5033293;28;20056;-50
2022/01/13 02:55:23;;;;;;;21.10;14.48;;;;;;;3.47;100.00;104074.53;5034188;28;20042;-49
2022/01/13 02:57:51;;;;;;;20.85;13.98;;;;;;;3.47;100.00;104066.44;5033837;28;20060;-51
2022/01/13 03:00:19;;;;;;;19.23;13.50;;;;;;;3.46;100.00;104080.91;5033367;28;20492;-49
2022/01/13 03:02:47;;;;;;;17.20;12.10;;;;;;;3.41;99.83;104081.31;5033737;28;20049;-50
2022/01/13 03:05:16;;;;;;;17.88;12.38;;;;;;;3.38;100.00;104068.97;5034231;28;20563;-49
2022/01/13 03:07:43;;;;;;;19.42;14.07;;;;;;;3.38;100.00;104068.97;5033832;28;20045;-51
2022/01/13 03:10:12;;;;;;;21.00;14.07;;;;;;;3.39;100.00;104076.09;5033131;28;20049;-50
2022/01/13 03:12:44;;;;;;;18.67;12.90;;;;;;;3.41;100.00;104068.69;5010107;28;20046;-51
2022/01/13 03:15:12;;;;;;;22.05;14.80;;;;;;;3.43;100.00;104071.25;5013845;28;20060;-52
2022/01/13 03:17:39;;;;;;;21.92;15.57;;;;;;;3.44;100.00;104066.72;5013826;28;20054;-50
2022/01/13 03:20:07;;;;;;;19.17;13.60;;;;;;;3.41;100.00;104060.59;5021205;28;20064;-52
2022/01/13 03:22:35;;;;;;;19.60;14.27;;;;;;;3.42;100.00;104053.38;5032891;28;20049;-54
2022/01/13 03:25:03;;;;;;;18.83;13.32;;;;;;;3.42;100.00;104048.00;5033049;28;20049;-46
2022/01/13 03:27:34;;;;;;;21.20;14.60;;;;;;;3.39;100.00;104043.75;5033331;28;20045;-50
2022/01/13 03:30:07;;;;;;;18.73;12.95;;;;;;;3.38;100.00;104036.63;5032940;28;20053;-49
2022/01/13 03:32:38;;;;;;;21.00;13.63;;;;;;;3.38;100.00;104041.19;5021601;28;20040;-49
2022/01/13 03:35:07;;;;;;;19.55;13.57;;;;;;;3.36;100.00;104038.63;5033062;28;20041;-52
2022/01/13 03:37:34;;;;;;;19.58;13.80;;;;;;;3.38;100.00;104041.19;5033391;28;20053;-51
2022/01/13 03:40:03;;;;;;;20.52;13.82;;;;;;;3.38;100.00;104036.63;5033237;28;20041;-50
2022/01/13 03:42:30;;;;;;;19.75;12.68;;;;;;;3.39;100.00;104043.75;5032769;28;20045;-50
2022/01/13 03:45:00;;;;;;;21.65;14.30;;;;;;;3.41;100.00;104041.72;5032677;28;20064;-50
2022/01/13 03:47:27;;;;;;;18.80;12.60;;;;;;;3.41;100.00;104028.25;5031945;28;20041;-49
2022/01/13 03:49:55;;;;;;;20.90;14.43;;;;;;;3.40;100.00;104029.25;5032996;28;20507;-50
2022/01/13 03:52:22;;;;;;;18.83;13.85;;;;;;;3.42;100.00;104031.81;5031944;28;20441;-52
2022/01/13 03:55:28;;;;;;;18.73;13.55;;;;;;;3.42;100.00;104032.66;5032816;28;20127;-52
2022/01/13 03:58:33;;;;;;;16.55;12.10;;;;;;;3.46;100.00;104040.47;5033382;28;20045;-50
2022/01/13 04:01:19;;;;;;;;;;;;;;;3.49;100.00;104040.19;4992010;28;20465;-50
2022/01/13 04:03:47;;;;;;;16.33;11.43;;;;;;;3.50;100.00;104040.03;4977283;28;20419;-49
2022/01/13 04:06:14;;;;;;;18.23;12.73;;;;;;;3.49;100.00;104042.88;4991003;28;20149;-52
2022/01/13 04:08:46;;;;;;;18.17;12.73;;;;;;;3.49;100.00;104037.47;4991220;28;20527;-52
2022/01/13 04:11:21;;;;;;;17.45;12.52;;;;;;;3.47;100.00;104032.25;4990935;28;20093;-54
2022/01/13 04:16:21;;;;;;;14.57;10.57;;;;;;;3.46;100.00;104030.53;4990916;28;20078;-53
2022/01/13 04:18:50;;;;;;;14.60;9.82;;;;;;;3.47;100.00;104021.47;4990915;28;20538;-49
2022/01/13 04:21:18;;;;;;;12.40;8.57;;;;;;;3.49;100.00;104022.19;4989333;28;20050;-50
2022/01/13 04:23:46;;;;;;;12.75;9.07;;;;;;;3.48;100.00;104025.00;4989279;28;20078;-47
2022/01/13 04:26:17;;;;;;;13.00;9.20;;;;;;;3.48;100.00;104022.31;4990684;28;20629;-50
2022/01/13 04:28:45;;;;;;;14.20;9.60;;;;;;;3.47;100.00;104017.94;4990849;28;20057;-50
2022/01/13 04:31:13;;;;;;;12.57;9.20;;;;;;;3.46;100.00;104021.59;4989100;28;20396;-51
2022/01/13 04:33:41;;;;;;;13.27;9.52;;;;;;;3.44;100.00;104012.78;4990507;28;20039;-48
2022/01/13 04:36:08;;;;;;;14.57;10.38;;;;;;;3.42;100.00;104018.34;4992944;28;20042;-49
2022/01/13 04:38:36;;;;;;;13.18;9.00;;;;;;;3.39;100.00;104018.63;5012152;28;20053;-53
2022/01/13 04:41:04;;;;;;;13.15;8.90;;;;;;;3.39;100.00;104022.19;5032208;28;20042;-55
2022/01/13 04:43:33;;;;;;;13.77;9.70;;;;;;;3.37;100.00;104010.69;5035984;28;20049;-54
2022/01/13 04:46:01;;;;;;;13.52;9.93;;;;;;;3.36;100.00;104017.06;5036406;28;20084;-51
2022/01/13 04:48:29;;;;;;;14.75;10.38;;;;;;;3.35;100.00;104009.13;5036092;28;20057;-51
2022/01/13 04:50:56;;;;;;;14.10;9.68;;;;;;;3.36;100.00;104017.06;5036013;28;20061;-51
2022/01/13 04:53:24;;;;;;;14.38;9.70;;;;;;;3.34;100.00;104010.97;5035932;28;20045;-52
2022/01/13 04:55:57;;;;;;;13.27;9.52;;;;;;;3.34;100.00;104013.66;5035628;28;20045;-52
2022/01/13 04:58:25;;;;;;;16.10;11.80;;;;;;;3.32;100.00;104012.97;5034772;28;20045;-48
2022/01/13 05:00:53;;;;;;;15.15;10.82;;;;;;;3.33;100.00;104020.03;5035483;28;20044;-51
2022/01/13 05:03:21;;;;;;;16.15;10.50;;;;;;;3.31;100.00;104024.72;5035831;28;20042;-52
2022/01/13 05:05:48;;;;;;;16.50;11.30;;;;;;;3.34;100.00;104027.16;5035952;28;20046;-50
2022/01/13 05:08:16;;;;;;;14.45;10.10;;;;;;;3.35;100.00;104031.53;5035489;28;20413;-55
2022/01/13 05:10:43;;;;;;;17.10;12.25;;;;;;;3.37;100.00;104026.00;5035675;28;20045;-49
2022/01/13 05:13:12;;;;;;;16.40;11.90;;;;;;;3.36;100.00;104029.69;5034658;28;20057;-50
2022/01/13 05:15:41;;;;;;;16.80;11.80;;;;;;;3.36;100.00;104033.22;5035203;28;20415;-49
2022/01/13 05:20:48;;;;;;;20.15;14.02;;;;;;;3.33;100.00;104036.22;5035082;28;20052;-47
2022/01/13 05:23:16;;;;;;;18.17;13.15;;;;;;;3.32;100.00;104031.81;5035847;28;20408;-50
2022/01/13 05:25:44;;;;;;;15.73;11.13;;;;;;;3.36;100.00;104030.53;5035252;28;20052;-51
2022/01/13 05:28:12;;;;;;;21.40;15.25;;;;;;;3.36;100.00;104025.13;5035699;28;20048;-51
2022/01/13 05:30:41;;;;;;;20.63;15.40;;;;;;;3.35;100.00;104031.53;5035368;28;20042;-50
2022/01/13 05:33:08;;;;;;;20.98;15.27;;;;;;;3.35;100.00;104031.53;5035091;28;20041;-51
2022/01/13 05:35:36;;;;;;;20.65;15.70;;;;;;;3.34;100.00;104019.06;5034894;28;20057;-50
2022/01/13 05:38:08;;;;;;;19.02;14.70;;;;;;;3.34;100.00;104019.06;5035195;28;20058;-51
2022/01/13 05:40:37;;;;;;;19.42;14.07;;;;;;;3.34;100.00;104019.06;5035391;28;20053;-51
2022/01/13 05:43:05;;;;;;;21.15;15.00;;;;;;;3.36;100.00;104017.06;5035409;28;20107;-48
2022/01/13 05:45:39;;;;;;;24.27;16.73;;;;;;;3.36;100.00;104010.81;5033966;28;20048;-50
2022/01/13 05:48:07;;;;;;;21.80;16.33;;;;;;;3.37;100.00;104010.69;5035238;28;20531;-50
2022/01/13 05:50:35;;;;;;;22.55;16.65;;;;;;;3.36;100.00;104014.34;5035118;28;20436;-53
2022/01/13 05:53:04;;;;;;;21.00;15.02;;;;;;;3.37;100.00;104013.38;5034817;28;20045;-51
2022/01/13 05:55:31;;;;;;;17.45;13.90;;;;;;;3.37;100.00;104002.59;5034496;28;20049;-52
2022/01/13 05:57:59;;;;;;;19.65;13.60;;;;;;;3.37;100.00;104018.78;5034758;28;20116;-51
2022/01/13 06:00:27;;;;;;;23.00;17.17;;;;;;;3.37;100.00;104018.78;5034739;28;20049;-50
2022/01/13 06:02:54;;;;;;;24.25;17.70;;;;;;;3.32;100.00;104041.72;5033172;28;20124;-55
2022/01/13 06:05:22;;;;;;;22.00;16.20;;;;;;;3.29;100.00;104032.09;5034290;28;20476;-52
2022/01/13 06:07:50;;;;;;;24.42;17.27;;;;;;;3.28;100.00;104035.78;5034940;28;20083;-46
2022/01/13 06:10:21;;;;;;;22.77;17.13;;;;;;;3.27;100.00;104034.09;5034637;28;20045;-50
2022/01/13 06:12:50;;;;;;;25.80;18.65;;;;;;;3.27;100.00;104039.47;5034778;28;20053;-49
2022/01/13 06:15:21;;;;;;;23.80;16.77;;;;;;;3.27;100.00;104022.44;5033536;28;20049;-48
2022/01/13 06:17:50;;;;;;;28.00;20.33;;;;;;;3.26;100.00;104024.28;5034670;28;20049;-48
2022/01/13 06:20:19;;;;;;;28.55;20.75;;;;;;;3.19;100.00;104033.91;5028921;28;20045;-49
2022/01/13 06:22:49;;;;;;;30.50;21.60;;;;;;;3.12;100.00;104030.06;5014648;28;20042;-51
2022/01/13 06:25:17;;;;;;;29.25;21.48;;;;;;;3.10;100.00;104021.28;5028100;28;20053;-53
2022/01/13 06:27:45;;;;;;;28.00;20.80;;;;;;;3.09;100.00;104019.59;5034208;28;20042;-54
2022/01/13 06:30:33;;;;;;;27.52;20.80;;;;;;;3.11;100.00;104028.38;5034167;28;20046;-52
2022/01/13 06:33:02;;;;;;;29.00;20.50;;;;;;;3.15;100.00;104024.41;5034259;28;20057;-51
2022/01/13 06:35:30;;;;;;;26.67;19.50;;;;;;;3.18;100.00;104021.44;5034047;28;20396;-50
2022/01/13 06:37:57;;;;;;;28.10;20.10;;;;;;;3.17;100.00;104027.81;5034234;28;20152;-49
2022/01/13 06:40:25;;;;;;;27.27;20.23;;;;;;;3.16;100.00;104018.88;5034986;28;20467;-48
2022/01/13 06:42:53;;;;;;;27.20;20.40;;;;;;;3.18;100.00;104013.38;5034065;28;20046;-52
2022/01/13 06:45:20;;;;;;;28.48;21.02;;;;;;;3.18;100.00;104013.38;5033091;28;20049;-50
2022/01/13 06:47:48;;;;;;;23.00;17.60;;;;;;;3.17;100.00;104027.81;5033666;28;20500;-51
2022/01/13 06:50:17;;;;;;;29.33;21.50;;;;;;;3.16;100.00;104020.75;5033983;28;20048;-54
2022/01/13 06:52:47;;;;;;;29.80;21.83;;;;;;;3.10;100.00;104015.88;5033597;28;20126;-52
2022/01/13 06:55:15;;;;;;;29.33;21.70;;;;;;;3.11;100.00;104013.06;5033044;28;20069;-53
2022/01/13 06:57:43;;;;;;;27.00;19.55;;;;;;;3.13;100.00;104011.09;5031448;28;20407;-52
2022/01/13 07:00:11;;;;;;;31.88;22.42;;;;;;;3.13;100.00;104008.41;5033744;28;20041;-48
2022/01/13 07:02:38;;;;;;;29.55;21.48;;;;;;;3.12;100.00;104003.13;5033531;28;20038;-50
2022/01/13 07:05:07;;;;;;;31.35;20.88;;;;;;;3.14;100.00;104017.31;5033293;28;20499;-52
2022/01/13 07:07:39;;;;;;;29.55;21.30;;;;;;;3.13;100.00;104018.31;5032962;28;20500;-51
2022/01/13 07:10:08;;;;;;;28.98;21.40;;;;;;;3.14;100.00;104020.03;5031975;28;20053;-53
2022/01/13 07:12:36;;;;;;;32.05;21.27;;;;;;;3.17;100.00;104023.28;4322651;28;10000653;-54
2022/01/13 07:15:05;;;;;;;27.33;19.17;;;;;;;3.17;100.00;104014.34;5012133;28;20092;-46
2022/01/13 07:17:33;;;;;;;29.45;20.73;;;;;;;3.21;100.00;104015.78;5030928;28;20046;-50
2022/01/13 07:20:01;;;;;;;30.23;20.85;;;;;;;3.26;100.00;104015.34;5031520;28;20480;-50
2022/01/13 07:22:29;;;;;;;28.98;21.48;;;;;;;3.25;100.00;104014.50;5030121;28;20052;-51
2022/01/13 07:24:56;;;;;;;30.92;21.45;;;;;;;3.25;100.00;104014.50;5031489;28;20060;-46
2022/01/13 07:27:24;;;;;;;30.20;21.98;;;;;;;3.25;100.00;104014.50;5031371;28;20404;-47
2022/01/13 07:29:52;;;;;;;31.85;23.00;;;;;;;3.18;100.00;104013.38;5031316;28;20559;-49
2022/01/13 07:32:19;;;;;;;30.90;22.52;;;;;;;3.15;100.00;104008.22;5031711;28;20128;-49
2022/01/13 07:34:47;;;;;;;32.13;23.15;;;;;;;3.12;100.00;104008.53;5031863;28;20045;-49
2022/01/13 07:37:16;;;;;;;31.35;22.23;;;;;;;3.08;100.00;104017.88;5027820;28;20575;-50
2022/01/13 07:39:44;;;;;;;29.90;21.48;;;;;;;3.06;100.00;104017.19;5031312;28;20056;-50
2022/01/13 07:42:12;;;;;;;28.15;20.63;;;;;;;3.07;100.00;104021.56;5031069;28;20042;-51
2022/01/13 07:44:40;;;;;;;28.45;20.45;;;;;;;3.11;100.00;104023.00;5031076;28;20571;-51
2022/01/13 07:47:07;;;;;;;27.08;18.73;;;;;;;3.13;100.00;104023.72;5030860;28;20057;-53
2022/01/13 07:49:35;;;;;;;19.27;13.77;;;;;;;3.18;100.00;104018.75;5030809;28;20037;-50
2022/01/13 07:52:04;;;;;;;26.75;19.58;;;;;;;3.22;100.00;104020.16;5030128;28;20132;-56
2022/01/13 07:54:32;;;;;;;26.20;19.35;;;;;;;3.25;100.00;104019.03;5030950;28;20049;-55
2022/01/13 07:57:01;;;;;;;27.08;19.65;;;;;;;3.24;100.00;104020.03;5029397;28;20120;-54
2022/01/13 07:59:29;;;;;;;24.30;18.13;;;;;;;3.20;100.00;104028.41;5031091;28;20095;-53
2022/01/13 08:01:59;;;;;;;25.48;18.55;;;;;;;3.17;100.00;104025.97;5030970;28;20101;-52
2022/01/13 08:04:27;;;;;;;28.85;19.15;;;;;;;3.18;100.00;104034.91;5030921;28;20573;-57
2022/01/13 08:06:55;;;;;;;22.52;16.67;;;;;;;3.16;100.00;104032.34;5030951;28;20072;-52
2022/01/13 08:09:23;;;;;;;26.00;17.95;;;;;;;3.15;100.00;104032.47;5029309;28;20050;-48
2022/01/13 08:11:51;;;;;;;27.45;17.02;;;;;;;3.15;100.00;104037.88;5024453;28;20690;-53
2022/01/13 08:14:19;;;;;;;23.15;17.45;;;;;;;3.17;100.00;104027.81;5011208;28;20053;-52
2022/01/13 08:16:49;;;;;;;24.15;16.80;;;;;;;3.22;100.00;104032.78;5023618;28;20037;-50
2022/01/13 08:22:03;;;;;;;23.45;17.25;;;;;;;3.27;100.00;104044.88;5030339;28;20064;-51
2022/01/13 08:24:30;;;;;;;21.67;14.85;;;;;;;3.25;100.00;104057.63;5030185;28;20038;-56
2022/01/13 08:26:58;;;;;;;22.60;16.20;;;;;;;3.25;100.00;104054.06;5029989;28;20538;-49
2022/01/13 08:29:25;;;;;;;19.48;13.65;;;;;;;3.24;100.00;104049.66;5031069;28;20049;-50
2022/01/13 08:31:53;;;;;;;18.95;14.48;;;;;;;3.24;100.00;104055.91;5030306;28;20055;-51
2022/01/13 08:34:21;;;;;;;18.90;13.90;;;;;;;3.22;100.00;104052.50;5030794;28;20041;-55
2022/01/13 08:36:48;;;;;;;18.17;13.02;;;;;;;3.17;100.00;104054.75;5030309;28;20056;-51
2022/01/13 08:39:16;;;;;;;17.33;12.75;;;;;;;3.17;100.00;104061.00;5030190;28;20053;-50
2022/01/13 08:41:45;;;;;;;19.15;13.35;;;;;;;3.19;100.00;104060.88;5031880;28;20510;-52
2022/01/13 08:44:12;;;;;;;15.50;11.50;;;;;;;3.27;100.00;104061.03;5030437;28;20037;-55
2022/01/13 08:46:40;;;;;;;16.77;12.02;;;;;;;3.30;100.00;104071.53;5032081;28;20037;-55
2022/01/13 08:49:09;;;;;;;19.85;12.98;;;;;;;3.31;100.00;104073.22;5032194;28;20045;-55
2022/01/13 08:51:37;;;;;;;15.27;11.48;;;;;;;3.29;100.00;104075.19;5031686;28;20045;-55
2022/01/13 08:54:05;;;;;;;19.67;13.25;;;;;;;3.27;100.00;104071.81;5031501;28;20049;-54
2022/01/13 08:56:32;;;;;;;17.27;13.10;;;;;;;3.30;100.00;104068.00;5031226;28;20033;-54
2022/01/13 08:59:00;;;;;;;16.33;12.05;;;;;;;3.31;100.00;104064.28;5031665;28;20041;-50
2022/01/13 09:01:30;;;;;;;17.50;12.82;;;;;;;3.33;100.00;104067.69;5031964;28;20046;-52
2022/01/13 09:03:59;;;;;;;13.95;9.40;;;;;;;3.37;100.00;104071.84;5031751;28;20045;-53
2022/01/13 09:06:26;;;;;;;16.63;10.65;;;;;;;3.37;100.00;104067.28;5032065;28;20045;-55
2022/01/13 09:08:54;;;;;;;18.50;12.68;;;;;;;3.38;100.00;104057.34;5031553;28;20041;-48
2022/01/13 09:11:22;;;;;;;16.95;12.10;;;;;;;3.39;100.00;104059.91;5020585;28;20064;-54
2022/01/13 09:13:56;;;;;;;18.13;12.95;;;;;;;3.37;100.00;104061.91;5012373;28;20050;-52
2022/01/13 09:16:33;;;;;;;17.95;12.30;;;;;;;3.38;100.00;104070.81;5029142;28;20045;-55
2022/01/13 09:19:08;;;;;;;17.50;11.85;;;;;;;3.39;100.00;104072.50;5031496;28;20566;-53
2022/01/13 09:21:37;;;;;;;15.32;11.20;;;;;;;3.36;100.00;104070.97;5035613;28;20132;-51
2022/01/13 09:24:10;;;;;;;18.67;12.60;;;;;;;3.40;100.00;104072.38;5035279;28;20065;-52
2022/01/13 09:26:38;;;;;;;18.20;12.70;;;;;;;3.39;100.00;104070.69;5034741;28;20049;-52
2022/01/13 09:29:07;;;;;;;19.40;12.60;;;;;;;3.39;100.00;104070.69;5034903;28;20120;-55
2022/01/13 09:31:36;;;;;;;19.05;13.20;;;;;;;3.37;100.00;104069.97;5034952;28;20041;-52
2022/01/13 09:34:06;;;;;;;19.83;13.65;;;;;;;3.32;100.00;104074.94;5034146;28;20108;-52
2022/01/13 09:36:34;;;;;;;21.17;13.68;;;;;;;3.34;100.00;104066.69;5035332;28;20046;-52
2022/01/13 09:39:03;;;;;;;22.17;13.95;;;;;;;3.29;100.00;104074.34;5034667;28;20132;-53
2022/01/13 09:41:32;;;;;;;21.17;14.40;;;;;;;3.28;100.00;104070.81;5035091;28;20381;-50
2022/01/13 09:44:04;;;;;;;17.77;11.63;;;;;;;3.33;100.00;104073.94;5035317;28;20056;-56
2022/01/13 09:46:35;;;;;;;18.90;10.60;;;;;;;3.38;100.00;104084.31;5035085;28;20104;-48
2022/01/13 09:49:05;;;;;;;18.45;11.00;;;;;;;3.42;100.00;104080.34;5034883;28;20561;-53
2022/01/13 09:51:36;;;;;;;21.88;14.05;;;;;;;3.51;100.00;104075.94;5034216;28;20042;-53
2022/01/13 09:54:05;;;;;;;20.25;13.07;;;;;;;3.48;100.00;104076.22;5034574;28;20382;-55
2022/01/13 09:56:35;;;;;;;18.63;13.00;;;;;;;3.47;100.00;104079.94;5034926;28;20403;-53
2022/01/13 09:59:05;;;;;;;21.27;15.15;;;;;;;3.42;100.00;104086.59;5034890;28;20038;-52
2022/01/13 10:01:33;;;;;;;19.27;13.25;;;;;;;3.49;100.00;104086.00;5034372;28;20048;-51
2022/01/13 10:04:01;;;;;;;19.35;14.32;;;;;;;3.54;100.00;104089.16;5034999;28;20408;-52
2022/01/13 10:06:28;;;;;;;19.42;13.40;;;;;;;3.60;100.00;104077.78;5034426;28;20136;-49
2022/01/13 10:08:58;;;;;;;18.83;10.88;;;;;;;3.65;100.00;104086.31;5033184;28;20045;-51
2022/01/13 10:11:35;;;;;;;21.15;14.70;;;;;;;3.72;100.00;104087.44;5034374;28;20048;-54
2022/01/13 10:16:47;;;;;;;20.75;13.30;;;;;;;3.79;100.00;104076.94;5034715;28;20052;-56
2022/01/13 10:19:36;;;;;;;21.60;14.25;;;;;;;3.76;100.00;104072.69;5034667;28;20110;-52
2022/01/13 10:22:06;;;;;;;19.70;13.25;;;;;;;3.74;100.00;104082.78;5034163;28;20041;-50
2022/01/13 10:24:37;;;;;;;18.50;12.15;;;;;;;3.75;100.00;104073.69;5034530;28;20037;-51
2022/01/13 10:27:04;;;;;;;17.73;8.95;;;;;;;3.87;100.00;104068.13;5034446;28;20065;-51
2022/01/13 10:29:38;;;;;;;19.65;13.93;;;;;;;3.81;100.00;104070.41;5034038;28;20033;-50
2022/01/13 10:32:06;;;;;;;19.85;13.38;;;;;;;3.73;100.00;104073.00;5032922;28;20045;-52
2022/01/13 10:34:36;;;;;;;19.70;12.65;;;;;;;3.72;100.00;104071.25;5033051;28;20041;-48
2022/01/13 10:37:11;;;;;;;21.77;12.40;;;;;;;3.75;100.00;104065.59;5034180;28;20041;-53
2022/01/13 10:39:57;;;;;;;17.45;10.85;;;;;;;3.76;100.00;104061.06;5033764;28;20137;-52
2022/01/13 10:45:20;;;;;;;18.00;11.75;;;;;;;3.72;100.00;104065.88;5033370;28;20040;-51
2022/01/13 10:47:56;;;;;;;22.77;15.25;;;;;;;3.60;100.00;104064.31;5034102;28;20119;-53
2022/01/13 10:50:45;;;;;;;21.55;14.23;;;;;;;3.56;100.00;104065.56;5033681;28;20042;-50
2022/01/13 10:53:16;;;;;;;23.05;15.73;;;;;;;3.50;100.00;104061.63;5033591;28;20160;-51
2022/01/13 10:55:50;;;;;;;23.85;15.80;;;;;;;3.48;100.00;104062.75;5033570;28;20043;-51
2022/01/13 10:58:22;;;;;;;24.08;16.10;;;;;;;3.49;100.00;104059.94;5033585;28;20052;-52
2022/01/13 11:00:51;;;;;;;24.13;17.10;;;;;;;3.50;100.00;104056.22;5032973;28;20165;-52
2022/01/13 11:03:24;;;;;;;25.02;17.02;;;;;;;3.49;100.00;104048.25;5013671;28;20056;-50
2022/01/13 11:05:58;;;;;;;25.92;16.90;;;;;;;3.53;100.00;104044.31;5025791;28;20539;-51
2022/01/13 11:08:39;;;;;;;25.42;16.27;;;;;;;3.50;100.00;104053.53;5033904;28;20389;-50
2022/01/13 11:11:19;;;;;;;27.98;17.13;;;;;;;3.47;100.00;104052.97;5031709;28;20045;-51
2022/01/13 11:13:56;;;;;;;25.13;17.00;;;;;;;3.48;100.00;104046.56;5033188;28;20041;-50
2022/01/13 11:16:26;;;;;;;21.63;14.93;;;;;;;3.53;100.00;104038.91;5033096;28;20048;-53
2022/01/13 11:18:54;;;;;;;26.08;14.77;;;;;;;3.61;100.00;104034.53;5033069;28;20061;-50
2022/01/13 11:21:22;;;;;;;21.60;13.80;;;;;;;3.67;100.00;104032.25;5032690;28;20056;-53
2022/01/13 11:23:50;;;;;;;21.60;14.90;;;;;;;3.72;100.00;104025.41;5031828;28;20037;-52
2022/01/13 11:26:18;;;;;;;23.10;16.80;;;;;;;3.73;100.00;104021.75;5032518;28;20069;-52
2022/01/13 11:28:46;;;;;;;24.60;17.75;;;;;;;3.73;100.00;104023.56;5033112;28;20560;-51
2022/01/13 11:31:13;;;;;;;24.73;16.80;;;;;;;3.73;100.00;104023.56;5032960;28;20065;-49
2022/01/13 11:33:41;;;;;;;24.17;17.17;;;;;;;3.72;100.00;104019.19;5032276;28;20064;-52
2022/01/13 11:36:12;;;;;;;29.60;17.67;;;;;;;3.69;100.00;104023.03;5032851;28;20040;-52
2022/01/13 11:38:59;;;;;;;24.58;17.63;;;;;;;3.65;100.00;104026.97;5032533;28;20394;-53
2022/01/13 11:41:27;;;;;;;28.15;18.30;;;;;;;3.63;100.00;104023.56;5033042;28;20047;-54
2022/01/13 11:44:17;;;;;;;29.10;19.38;;;;;;;3.61;100.00;104026.44;5030988;28;20453;-54
2022/01/13 11:46:46;;;;;;;30.48;19.25;;;;;;;3.64;100.00;104028.00;5028171;28;20128;-50